sensor_id;sensor_type;location;lat;lon;timestamp;P1;durP1;ratioP1;P2;durP2;ratioP2
6898;SDS011;3488;42.616;23.350;2023-05-18T00:01:14;1.42;;;0.70;;
6898;SDS011;3488;42.616;23.350;2023-05-18T00:03:41;0.85;;;0.85;;
6898;SDS011;3488;42.616;23.350;2023-05-18T00:06:08;1.60;;;0.90;;
6898;SDS011;3488;42.616;23.350;2023-05-18T00:08:36;1.05;;;0.90;;
6898;SDS011;3488;42.616;23.350;2023-05-18T00:11:04;1.35;;;0.70;;
6898;SDS011;3488;42.616;23.350;2023-05-18T00:13:31;0.70;;;0.70;;
6898;SDS011;3488;42.616;23.350;2023-05-18T00:15:59;0.30;;;0.30;;
6898;SDS011;3488;42.616;23.350;2023-05-18T00:18:30;0.40;;;0.40;;
6898;SDS011;3488;42.616;23.350;2023-05-18T00:20:58;0.63;;;0.40;;
6898;SDS011;3488;42.616;23.350;2023-05-18T00:23:26;0.57;;;0.57;;
6898;SDS011;3488;42.616;23.350;2023-05-18T00:25:56;0.85;;;0.50;;
6898;SDS011;3488;42.616;23.350;2023-05-18T00:28:23;1.85;;;0.40;;
6898;SDS011;3488;42.616;23.350;2023-05-18T00:30:50;0.25;;;0.25;;
6898;SDS011;3488;42.616;23.350;2023-05-18T00:33:20;0.40;;;0.40;;
6898;SDS011;3488;42.616;23.350;2023-05-18T00:35:48;0.75;;;0.75;;
6898;SDS011;3488;42.616;23.350;2023-05-18T00:38:15;0.40;;;0.40;;
6898;SDS011;3488;42.616;23.350;2023-05-18T00:40:43;0.40;;;0.40;;
6898;SDS011;3488;42.616;23.350;2023-05-18T00:43:11;0.35;;;0.35;;
6898;SDS011;3488;42.616;23.350;2023-05-18T00:45:38;0.45;;;0.45;;
6898;SDS011;3488;42.616;23.350;2023-05-18T00:48:05;0.30;;;0.30;;
6898;SDS011;3488;42.616;23.350;2023-05-18T00:50:32;0.20;;;0.20;;
6898;SDS011;3488;42.616;23.350;2023-05-18T00:53:01;0.20;;;0.20;;
6898;SDS011;3488;42.616;23.350;2023-05-18T00:55:28;0.20;;;0.20;;
6898;SDS011;3488;42.616;23.350;2023-05-18T00:57:55;0.77;;;0.30;;
6898;SDS011;3488;42.616;23.350;2023-05-18T01:00:26;0.57;;;0.57;;
6898;SDS011;3488;42.616;23.350;2023-05-18T01:02:53;0.20;;;0.20;;
6898;SDS011;3488;42.616;23.350;2023-05-18T01:05:21;0.30;;;0.30;;
6898;SDS011;3488;42.616;23.350;2023-05-18T01:07:49;0.38;;;0.38;;
6898;SDS011;3488;42.616;23.350;2023-05-18T01:10:18;0.20;;;0.20;;
6898;SDS011;3488;42.616;23.350;2023-05-18T01:12:47;0.85;;;0.57;;
6898;SDS011;3488;42.616;23.350;2023-05-18T01:15:17;0.22;;;0.22;;
6898;SDS011;3488;42.616;23.350;2023-05-18T01:17:50;0.20;;;0.20;;
6898;SDS011;3488;42.616;23.350;2023-05-18T01:20:33;0.40;;;0.40;;
6898;SDS011;3488;42.616;23.350;2023-05-18T01:26:12;0.60;;;0.40;;
6898;SDS011;3488;42.616;23.350;2023-05-18T01:28:42;0.20;;;0.20;;
6898;SDS011;3488;42.616;23.350;2023-05-18T01:31:11;0.82;;;0.63;;
6898;SDS011;3488;42.616;23.350;2023-05-18T01:33:40;0.30;;;0.30;;
6898;SDS011;3488;42.616;23.350;2023-05-18T01:36:07;1.00;;;0.63;;
6898;SDS011;3488;42.616;23.350;2023-05-18T01:38:35;0.40;;;0.40;;
6898;SDS011;3488;42.616;23.350;2023-05-18T01:41:05;0.52;;;0.52;;
6898;SDS011;3488;42.616;23.350;2023-05-18T01:43:41;1.65;;;0.60;;
6898;SDS011;3488;42.616;23.350;2023-05-18T01:46:15;1.85;;;0.50;;
6898;SDS011;3488;42.616;23.350;2023-05-18T01:48:48;0.68;;;0.68;;
6898;SDS011;3488;42.616;23.350;2023-05-18T01:51:19;0.68;;;0.68;;
6898;SDS011;3488;42.616;23.350;2023-05-18T01:53:50;0.63;;;0.63;;
6898;SDS011;3488;42.616;23.350;2023-05-18T01:56:22;0.43;;;0.43;;
6898;SDS011;3488;42.616;23.350;2023-05-18T01:58:52;0.43;;;0.43;;
6898;SDS011;3488;42.616;23.350;2023-05-18T02:01:19;1.48;;;0.80;;
6898;SDS011;3488;42.616;23.350;2023-05-18T02:03:48;0.60;;;0.60;;
6898;SDS011;3488;42.616;23.350;2023-05-18T02:06:16;0.70;;;0.70;;
6898;SDS011;3488;42.616;23.350;2023-05-18T02:08:43;0.77;;;0.77;;
6898;SDS011;3488;42.616;23.350;2023-05-18T02:11:11;1.02;;;0.60;;
6898;SDS011;3488;42.616;23.350;2023-05-18T02:13:38;0.40;;;0.40;;
6898;SDS011;3488;42.616;23.350;2023-05-18T02:16:08;1.02;;;0.50;;
6898;SDS011;3488;42.616;23.350;2023-05-18T02:18:36;0.82;;;0.82;;
6898;SDS011;3488;42.616;23.350;2023-05-18T02:21:03;1.13;;;0.75;;
6898;SDS011;3488;42.616;23.350;2023-05-18T02:23:30;1.02;;;0.55;;
6898;SDS011;3488;42.616;23.350;2023-05-18T02:25:58;0.75;;;0.75;;
6898;SDS011;3488;42.616;23.350;2023-05-18T02:28:25;0.68;;;0.68;;
6898;SDS011;3488;42.616;23.350;2023-05-18T02:30:53;1.13;;;0.52;;
6898;SDS011;3488;42.616;23.350;2023-05-18T02:33:21;0.65;;;0.65;;
6898;SDS011;3488;42.616;23.350;2023-05-18T02:35:50;0.90;;;0.90;;
6898;SDS011;3488;42.616;23.350;2023-05-18T02:38:18;1.23;;;0.80;;
6898;SDS011;3488;42.616;23.350;2023-05-18T02:40:45;1.35;;;1.35;;
6898;SDS011;3488;42.616;23.350;2023-05-18T02:43:13;0.80;;;0.80;;
6898;SDS011;3488;42.616;23.350;2023-05-18T02:45:40;0.95;;;0.95;;
6898;SDS011;3488;42.616;23.350;2023-05-18T02:48:07;1.05;;;1.00;;
6898;SDS011;3488;42.616;23.350;2023-05-18T02:50:36;0.93;;;0.90;;
6898;SDS011;3488;42.616;23.350;2023-05-18T02:53:03;0.85;;;0.85;;
6898;SDS011;3488;42.616;23.350;2023-05-18T02:55:30;0.70;;;0.60;;
6898;SDS011;3488;42.616;23.350;2023-05-18T02:57:57;0.88;;;0.73;;
6898;SDS011;3488;42.616;23.350;2023-05-18T03:00:26;3.20;;;0.85;;
6898;SDS011;3488;42.616;23.350;2023-05-18T03:02:55;0.70;;;0.70;;
6898;SDS011;3488;42.616;23.350;2023-05-18T03:05:24;1.73;;;0.65;;
6898;SDS011;3488;42.616;23.350;2023-05-18T03:07:52;0.60;;;0.60;;
6898;SDS011;3488;42.616;23.350;2023-05-18T03:10:19;1.17;;;0.60;;
6898;SDS011;3488;42.616;23.350;2023-05-18T03:12:47;0.75;;;0.60;;
6898;SDS011;3488;42.616;23.350;2023-05-18T03:15:14;0.75;;;0.75;;
6898;SDS011;3488;42.616;23.350;2023-05-18T03:17:41;2.15;;;0.68;;
6898;SDS011;3488;42.616;23.350;2023-05-18T03:20:09;0.88;;;0.88;;
6898;SDS011;3488;42.616;23.350;2023-05-18T03:22:38;1.05;;;1.05;;
6898;SDS011;3488;42.616;23.350;2023-05-18T03:25:07;1.40;;;1.40;;
6898;SDS011;3488;42.616;23.350;2023-05-18T03:27:34;1.80;;;1.70;;
6898;SDS011;3488;42.616;23.350;2023-05-18T03:30:02;1.80;;;1.70;;
6898;SDS011;3488;42.616;23.350;2023-05-18T03:32:30;3.25;;;2.15;;
6898;SDS011;3488;42.616;23.350;2023-05-18T03:34:58;3.30;;;3.00;;
6898;SDS011;3488;42.616;23.350;2023-05-18T03:37:26;2.20;;;2.10;;
6898;SDS011;3488;42.616;23.350;2023-05-18T03:39:57;1.90;;;1.80;;
6898;SDS011;3488;42.616;23.350;2023-05-18T03:42:26;2.90;;;1.90;;
6898;SDS011;3488;42.616;23.350;2023-05-18T03:44:53;1.80;;;1.70;;
6898;SDS011;3488;42.616;23.350;2023-05-18T03:47:20;1.73;;;1.65;;
6898;SDS011;3488;42.616;23.350;2023-05-18T03:49:48;1.65;;;1.60;;
6898;SDS011;3488;42.616;23.350;2023-05-18T03:52:15;1.60;;;1.60;;
6898;SDS011;3488;42.616;23.350;2023-05-18T03:54:46;1.10;;;1.10;;
6898;SDS011;3488;42.616;23.350;2023-05-18T03:57:14;0.80;;;0.80;;
6898;SDS011;3488;42.616;23.350;2023-05-18T03:59:43;0.75;;;0.75;;
6898;SDS011;3488;42.616;23.350;2023-05-18T04:02:11;1.77;;;0.90;;
6898;SDS011;3488;42.616;23.350;2023-05-18T04:04:40;0.98;;;0.98;;
6898;SDS011;3488;42.616;23.350;2023-05-18T04:07:10;0.80;;;0.80;;
6898;SDS011;3488;42.616;23.350;2023-05-18T04:09:37;1.45;;;0.90;;
6898;SDS011;3488;42.616;23.350;2023-05-18T04:12:07;0.65;;;0.65;;
6898;SDS011;3488;42.616;23.350;2023-05-18T04:14:34;1.17;;;1.17;;
6898;SDS011;3488;42.616;23.350;2023-05-18T04:17:03;1.17;;;1.17;;
6898;SDS011;3488;42.616;23.350;2023-05-18T04:19:31;2.60;;;1.92;;
6898;SDS011;3488;42.616;23.350;2023-05-18T04:21:59;3.42;;;3.00;;
6898;SDS011;3488;42.616;23.350;2023-05-18T04:24:29;3.22;;;3.03;;
6898;SDS011;3488;42.616;23.350;2023-05-18T04:26:56;3.38;;;3.10;;
6898;SDS011;3488;42.616;23.350;2023-05-18T04:29:25;3.50;;;3.30;;
6898;SDS011;3488;42.616;23.350;2023-05-18T04:31:52;4.00;;;3.70;;
6898;SDS011;3488;42.616;23.350;2023-05-18T04:34:26;3.90;;;3.70;;
6898;SDS011;3488;42.616;23.350;2023-05-18T04:36:54;4.30;;;4.00;;
6898;SDS011;3488;42.616;23.350;2023-05-18T04:39:23;4.32;;;4.03;;
6898;SDS011;3488;42.616;23.350;2023-05-18T04:41:51;4.78;;;4.43;;
6898;SDS011;3488;42.616;23.350;2023-05-18T04:44:22;5.03;;;4.60;;
6898;SDS011;3488;42.616;23.350;2023-05-18T04:46:50;5.00;;;4.53;;
6898;SDS011;3488;42.616;23.350;2023-05-18T04:49:17;4.70;;;4.40;;
6898;SDS011;3488;42.616;23.350;2023-05-18T04:51:47;4.45;;;4.13;;
6898;SDS011;3488;42.616;23.350;2023-05-18T04:54:20;5.25;;;4.43;;
6898;SDS011;3488;42.616;23.350;2023-05-18T04:56:48;4.43;;;4.13;;
6898;SDS011;3488;42.616;23.350;2023-05-18T04:59:15;4.20;;;3.95;;
6898;SDS011;3488;42.616;23.350;2023-05-18T05:01:43;4.43;;;4.13;;
6898;SDS011;3488;42.616;23.350;2023-05-18T05:04:10;3.95;;;3.65;;
6898;SDS011;3488;42.616;23.350;2023-05-18T05:06:38;3.58;;;3.38;;
6898;SDS011;3488;42.616;23.350;2023-05-18T05:09:06;3.42;;;3.22;;
6898;SDS011;3488;42.616;23.350;2023-05-18T05:11:33;3.58;;;3.38;;
6898;SDS011;3488;42.616;23.350;2023-05-18T05:14:01;3.10;;;2.90;;
6898;SDS011;3488;42.616;23.350;2023-05-18T05:16:28;3.20;;;3.00;;
6898;SDS011;3488;42.616;23.350;2023-05-18T05:18:56;2.70;;;2.60;;
6898;SDS011;3488;42.616;23.350;2023-05-18T05:21:23;2.70;;;2.60;;
6898;SDS011;3488;42.616;23.350;2023-05-18T05:23:51;2.67;;;2.58;;
6898;SDS011;3488;42.616;23.350;2023-05-18T05:26:20;2.42;;;2.33;;
6898;SDS011;3488;42.616;23.350;2023-05-18T05:28:47;6.88;;;2.58;;
6898;SDS011;3488;42.616;23.350;2023-05-18T05:31:14;2.22;;;2.05;;
6898;SDS011;3488;42.616;23.350;2023-05-18T05:33:41;2.00;;;1.90;;
6898;SDS011;3488;42.616;23.350;2023-05-18T05:36:09;1.73;;;1.63;;
6898;SDS011;3488;42.616;23.350;2023-05-18T05:38:36;1.30;;;1.30;;
6898;SDS011;3488;42.616;23.350;2023-05-18T05:41:03;1.60;;;1.50;;
6898;SDS011;3488;42.616;23.350;2023-05-18T05:43:32;1.60;;;1.60;;
6898;SDS011;3488;42.616;23.350;2023-05-18T05:45:59;1.00;;;1.00;;
6898;SDS011;3488;42.616;23.350;2023-05-18T05:48:26;1.00;;;1.00;;
6898;SDS011;3488;42.616;23.350;2023-05-18T05:50:53;0.82;;;0.82;;
6898;SDS011;3488;42.616;23.350;2023-05-18T05:53:21;6.75;;;1.10;;
6898;SDS011;3488;42.616;23.350;2023-05-18T05:55:48;0.93;;;0.93;;
6898;SDS011;3488;42.616;23.350;2023-05-18T05:58:15;1.02;;;1.02;;
6898;SDS011;3488;42.616;23.350;2023-05-18T06:00:43;1.20;;;1.15;;
6898;SDS011;3488;42.616;23.350;2023-05-18T06:03:11;1.42;;;1.42;;
6898;SDS011;3488;42.616;23.350;2023-05-18T06:05:38;1.00;;;1.00;;
6898;SDS011;3488;42.616;23.350;2023-05-18T06:08:05;1.00;;;1.00;;
6898;SDS011;3488;42.616;23.350;2023-05-18T06:10:33;1.15;;;1.05;;
6898;SDS011;3488;42.616;23.350;2023-05-18T06:13:00;1.58;;;1.23;;
6898;SDS011;3488;42.616;23.350;2023-05-18T06:15:27;0.82;;;0.82;;
6898;SDS011;3488;42.616;23.350;2023-05-18T06:17:57;1.02;;;1.02;;
6898;SDS011;3488;42.616;23.350;2023-05-18T06:20:26;1.50;;;1.40;;
6898;SDS011;3488;42.616;23.350;2023-05-18T06:22:54;1.30;;;1.30;;
6898;SDS011;3488;42.616;23.350;2023-05-18T06:25:22;1.85;;;1.73;;
6898;SDS011;3488;42.616;23.350;2023-05-18T06:27:49;3.35;;;1.50;;
6898;SDS011;3488;42.616;23.350;2023-05-18T06:30:17;1.70;;;1.60;;
6898;SDS011;3488;42.616;23.350;2023-05-18T06:32:45;1.80;;;1.70;;
6898;SDS011;3488;42.616;23.350;2023-05-18T06:35:13;3.85;;;2.28;;
6898;SDS011;3488;42.616;23.350;2023-05-18T06:37:40;2.03;;;1.90;;
6898;SDS011;3488;42.616;23.350;2023-05-18T06:40:07;2.00;;;1.90;;
6898;SDS011;3488;42.616;23.350;2023-05-18T06:42:35;3.83;;;2.20;;
6898;SDS011;3488;42.616;23.350;2023-05-18T06:45:03;2.40;;;2.13;;
6898;SDS011;3488;42.616;23.350;2023-05-18T06:47:30;2.53;;;2.42;;
6898;SDS011;3488;42.616;23.350;2023-05-18T06:49:57;2.80;;;2.65;;
6898;SDS011;3488;42.616;23.350;2023-05-18T06:52:26;2.42;;;2.33;;
6898;SDS011;3488;42.616;23.350;2023-05-18T06:54:55;3.03;;;2.75;;
6898;SDS011;3488;42.616;23.350;2023-05-18T06:57:25;3.05;;;2.28;;
6898;SDS011;3488;42.616;23.350;2023-05-18T06:59:52;4.22;;;3.40;;
6898;SDS011;3488;42.616;23.350;2023-05-18T07:02:19;3.10;;;3.00;;
6898;SDS011;3488;42.616;23.350;2023-05-18T07:04:47;2.95;;;2.85;;
6898;SDS011;3488;42.616;23.350;2023-05-18T07:07:14;3.22;;;3.03;;
6898;SDS011;3488;42.616;23.350;2023-05-18T07:09:43;3.70;;;3.40;;
6898;SDS011;3488;42.616;23.350;2023-05-18T07:12:13;3.65;;;3.45;;
6898;SDS011;3488;42.616;23.350;2023-05-18T07:14:41;3.80;;;3.50;;
6898;SDS011;3488;42.616;23.350;2023-05-18T07:17:08;5.97;;;3.75;;
6898;SDS011;3488;42.616;23.350;2023-05-18T07:19:35;4.07;;;3.60;;
6898;SDS011;3488;42.616;23.350;2023-05-18T07:22:03;3.88;;;3.60;;
6898;SDS011;3488;42.616;23.350;2023-05-18T07:24:31;4.68;;;4.00;;
6898;SDS011;3488;42.616;23.350;2023-05-18T07:27:00;5.35;;;4.88;;
6898;SDS011;3488;42.616;23.350;2023-05-18T07:29:28;5.25;;;4.75;;
6898;SDS011;3488;42.616;23.350;2023-05-18T07:31:55;5.95;;;5.45;;
6898;SDS011;3488;42.616;23.350;2023-05-18T07:34:22;5.88;;;5.38;;
6898;SDS011;3488;42.616;23.350;2023-05-18T07:36:51;10.80;;;5.55;;
6898;SDS011;3488;42.616;23.350;2023-05-18T07:39:18;7.75;;;5.47;;
6898;SDS011;3488;42.616;23.350;2023-05-18T07:41:52;7.30;;;5.78;;
6898;SDS011;3488;42.616;23.350;2023-05-18T07:44:21;6.90;;;6.30;;
6898;SDS011;3488;42.616;23.350;2023-05-18T07:46:48;7.53;;;6.20;;
6898;SDS011;3488;42.616;23.350;2023-05-18T07:49:16;10.32;;;9.25;;
6898;SDS011;3488;42.616;23.350;2023-05-18T07:51:43;10.88;;;9.68;;
6898;SDS011;3488;42.616;23.350;2023-05-18T07:54:10;15.68;;;10.38;;
6898;SDS011;3488;42.616;23.350;2023-05-18T07:56:37;11.93;;;10.35;;
6898;SDS011;3488;42.616;23.350;2023-05-18T07:59:05;12.38;;;10.50;;
6898;SDS011;3488;42.616;23.350;2023-05-18T08:01:34;16.85;;;12.32;;
6898;SDS011;3488;42.616;23.350;2023-05-18T08:04:02;13.57;;;10.57;;
6898;SDS011;3488;42.616;23.350;2023-05-18T08:06:29;11.82;;;10.13;;
6898;SDS011;3488;42.616;23.350;2023-05-18T08:08:57;12.43;;;10.70;;
6898;SDS011;3488;42.616;23.350;2023-05-18T08:11:24;15.65;;;11.32;;
6898;SDS011;3488;42.616;23.350;2023-05-18T08:13:51;13.55;;;11.50;;
6898;SDS011;3488;42.616;23.350;2023-05-18T08:16:19;13.95;;;11.93;;
6898;SDS011;3488;42.616;23.350;2023-05-18T08:18:48;15.10;;;11.60;;
6898;SDS011;3488;42.616;23.350;2023-05-18T08:21:15;13.88;;;11.85;;
6898;SDS011;3488;42.616;23.350;2023-05-18T08:23:42;17.45;;;11.50;;
6898;SDS011;3488;42.616;23.350;2023-05-18T08:26:10;16.35;;;11.65;;
6898;SDS011;3488;42.616;23.350;2023-05-18T08:28:37;13.07;;;11.65;;
6898;SDS011;3488;42.616;23.350;2023-05-18T08:31:05;12.32;;;10.63;;
6898;SDS011;3488;42.616;23.350;2023-05-18T08:33:33;12.63;;;9.95;;
6898;SDS011;3488;42.616;23.350;2023-05-18T08:36:01;14.32;;;10.18;;
6898;SDS011;3488;42.616;23.350;2023-05-18T08:38:28;12.07;;;10.55;;
6898;SDS011;3488;42.616;23.350;2023-05-18T08:40:57;14.63;;;11.30;;
6898;SDS011;3488;42.616;23.350;2023-05-18T08:43:35;13.70;;;11.10;;
6898;SDS011;3488;42.616;23.350;2023-05-18T08:46:09;15.43;;;12.15;;
6898;SDS011;3488;42.616;23.350;2023-05-18T08:48:45;17.55;;;10.20;;
6898;SDS011;3488;42.616;23.350;2023-05-18T08:51:18;10.88;;;9.75;;
6898;SDS011;3488;42.616;23.350;2023-05-18T08:53:47;10.60;;;8.85;;
6898;SDS011;3488;42.616;23.350;2023-05-18T08:56:18;13.88;;;9.80;;
6898;SDS011;3488;42.616;23.350;2023-05-18T08:58:49;12.00;;;9.98;;
6898;SDS011;3488;42.616;23.350;2023-05-18T09:01:17;12.65;;;10.18;;
6898;SDS011;3488;42.616;23.350;2023-05-18T09:03:47;12.30;;;10.65;;
6898;SDS011;3488;42.616;23.350;2023-05-18T09:06:16;18.40;;;11.43;;
6898;SDS011;3488;42.616;23.350;2023-05-18T09:08:44;17.50;;;12.05;;
6898;SDS011;3488;42.616;23.350;2023-05-18T09:11:12;15.57;;;10.85;;
6898;SDS011;3488;42.616;23.350;2023-05-18T09:13:39;11.98;;;9.90;;
6898;SDS011;3488;42.616;23.350;2023-05-18T09:16:06;13.43;;;10.93;;
6898;SDS011;3488;42.616;23.350;2023-05-18T09:18:34;15.30;;;10.35;;
6898;SDS011;3488;42.616;23.350;2023-05-18T09:21:01;13.98;;;11.43;;
6898;SDS011;3488;42.616;23.350;2023-05-18T09:23:30;10.77;;;9.77;;
6898;SDS011;3488;42.616;23.350;2023-05-18T09:25:58;9.25;;;8.20;;
6898;SDS011;3488;42.616;23.350;2023-05-18T09:28:31;9.20;;;8.35;;
6898;SDS011;3488;42.616;23.350;2023-05-18T09:31:01;10.55;;;7.95;;
6898;SDS011;3488;42.616;23.350;2023-05-18T09:33:31;8.65;;;7.85;;
6898;SDS011;3488;42.616;23.350;2023-05-18T09:35:59;10.90;;;9.25;;
6898;SDS011;3488;42.616;23.350;2023-05-18T09:38:26;14.68;;;9.27;;
6898;SDS011;3488;42.616;23.350;2023-05-18T09:40:56;9.40;;;6.97;;
6898;SDS011;3488;42.616;23.350;2023-05-18T09:43:25;8.45;;;7.10;;
6898;SDS011;3488;42.616;23.350;2023-05-18T09:45:51;10.10;;;7.82;;
6898;SDS011;3488;42.616;23.350;2023-05-18T09:48:19;10.85;;;8.23;;
6898;SDS011;3488;42.616;23.350;2023-05-18T09:50:48;15.57;;;9.70;;
6898;SDS011;3488;42.616;23.350;2023-05-18T09:53:15;9.65;;;8.77;;
6898;SDS011;3488;42.616;23.350;2023-05-18T09:55:47;12.85;;;8.93;;
6898;SDS011;3488;42.616;23.350;2023-05-18T09:58:16;9.93;;;7.82;;
6898;SDS011;3488;42.616;23.350;2023-05-18T10:00:46;10.95;;;7.80;;
6898;SDS011;3488;42.616;23.350;2023-05-18T10:03:18;10.57;;;7.82;;
6898;SDS011;3488;42.616;23.350;2023-05-18T10:05:47;10.63;;;7.63;;
6898;SDS011;3488;42.616;23.350;2023-05-18T10:08:14;8.38;;;7.55;;
6898;SDS011;3488;42.616;23.350;2023-05-18T10:10:43;13.27;;;7.43;;
6898;SDS011;3488;42.616;23.350;2023-05-18T10:13:11;8.90;;;8.10;;
6898;SDS011;3488;42.616;23.350;2023-05-18T10:15:47;8.00;;;7.25;;
6898;SDS011;3488;42.616;23.350;2023-05-18T10:18:17;9.23;;;7.22;;
6898;SDS011;3488;42.616;23.350;2023-05-18T10:20:48;7.90;;;7.25;;
6898;SDS011;3488;42.616;23.350;2023-05-18T10:23:17;9.65;;;8.25;;
6898;SDS011;3488;42.616;23.350;2023-05-18T10:25:45;8.63;;;7.65;;
6898;SDS011;3488;42.616;23.350;2023-05-18T10:28:17;8.82;;;8.02;;
6898;SDS011;3488;42.616;23.350;2023-05-18T10:30:51;8.65;;;7.82;;
6898;SDS011;3488;42.616;23.350;2023-05-18T10:33:20;10.68;;;8.15;;
6898;SDS011;3488;42.616;23.350;2023-05-18T10:35:49;12.73;;;7.97;;
6898;SDS011;3488;42.616;23.350;2023-05-18T10:38:17;9.07;;;8.13;;
6898;SDS011;3488;42.616;23.350;2023-05-18T10:40:46;12.73;;;9.30;;
6898;SDS011;3488;42.616;23.350;2023-05-18T10:43:17;10.57;;;9.50;;
6898;SDS011;3488;42.616;23.350;2023-05-18T10:45:47;11.02;;;7.53;;
6898;SDS011;3488;42.616;23.350;2023-05-18T10:48:21;8.80;;;7.13;;
6898;SDS011;3488;42.616;23.350;2023-05-18T10:50:49;9.80;;;8.80;;
6898;SDS011;3488;42.616;23.350;2023-05-18T10:53:18;8.15;;;7.20;;
6898;SDS011;3488;42.616;23.350;2023-05-18T10:55:46;10.90;;;7.93;;
6898;SDS011;3488;42.616;23.350;2023-05-18T10:58:15;10.95;;;7.40;;
6898;SDS011;3488;42.616;23.350;2023-05-18T11:00:45;7.70;;;6.88;;
6898;SDS011;3488;42.616;23.350;2023-05-18T11:03:16;9.63;;;7.30;;
6898;SDS011;3488;42.616;23.350;2023-05-18T11:05:49;8.43;;;7.40;;
6898;SDS011;3488;42.616;23.350;2023-05-18T11:08:24;10.68;;;7.43;;
6898;SDS011;3488;42.616;23.350;2023-05-18T11:10:58;8.30;;;7.50;;
6898;SDS011;3488;42.616;23.350;2023-05-18T11:13:28;11.65;;;8.65;;
6898;SDS011;3488;42.616;23.350;2023-05-18T11:16:05;9.65;;;8.70;;
6898;SDS011;3488;42.616;23.350;2023-05-18T11:18:33;9.82;;;8.45;;
6898;SDS011;3488;42.616;23.350;2023-05-18T11:21:03;9.50;;;8.32;;
6898;SDS011;3488;42.616;23.350;2023-05-18T11:23:54;9.38;;;8.32;;
6898;SDS011;3488;42.616;23.350;2023-05-18T11:26:40;7.70;;;7.10;;
6898;SDS011;3488;42.616;23.350;2023-05-18T11:29:17;10.80;;;7.20;;
6898;SDS011;3488;42.616;23.350;2023-05-18T11:31:47;7.82;;;7.13;;
6898;SDS011;3488;42.616;23.350;2023-05-18T11:37:03;6.18;;;5.63;;
6898;SDS011;3488;42.616;23.350;2023-05-18T11:39:31;4.93;;;4.20;;
6898;SDS011;3488;42.616;23.350;2023-05-18T11:41:58;7.65;;;3.42;;
6898;SDS011;3488;42.616;23.350;2023-05-18T11:44:27;3.60;;;3.40;;
6898;SDS011;3488;42.616;23.350;2023-05-18T11:46:59;3.38;;;3.00;;
6898;SDS011;3488;42.616;23.350;2023-05-18T11:49:27;5.03;;;3.40;;
6898;SDS011;3488;42.616;23.350;2023-05-18T11:51:56;3.67;;;3.38;;
6898;SDS011;3488;42.616;23.350;2023-05-18T11:54:29;3.42;;;3.13;;
6898;SDS011;3488;42.616;23.350;2023-05-18T11:56:59;4.25;;;3.30;;
6898;SDS011;3488;42.616;23.350;2023-05-18T11:59:29;3.53;;;3.25;;
6898;SDS011;3488;42.616;23.350;2023-05-18T12:01:59;4.03;;;3.72;;
6898;SDS011;3488;42.616;23.350;2023-05-18T12:04:28;3.00;;;2.80;;
6898;SDS011;3488;42.616;23.350;2023-05-18T12:06:57;3.50;;;3.30;;
6898;SDS011;3488;42.616;23.350;2023-05-18T12:09:31;3.17;;;2.42;;
6898;SDS011;3488;42.616;23.350;2023-05-18T12:11:59;3.42;;;2.53;;
6898;SDS011;3488;42.616;23.350;2023-05-18T12:14:26;2.40;;;2.28;;
6898;SDS011;3488;42.616;23.350;2023-05-18T12:16:56;3.35;;;2.42;;
6898;SDS011;3488;42.616;23.350;2023-05-18T12:19:24;2.67;;;2.47;;
6898;SDS011;3488;42.616;23.350;2023-05-18T12:21:52;2.88;;;2.67;;
6898;SDS011;3488;42.616;23.350;2023-05-18T12:24:20;4.60;;;2.97;;
6898;SDS011;3488;42.616;23.350;2023-05-18T12:26:48;3.58;;;3.38;;
6898;SDS011;3488;42.616;23.350;2023-05-18T12:29:17;3.22;;;3.03;;
6898;SDS011;3488;42.616;23.350;2023-05-18T12:31:47;2.80;;;2.70;;
6898;SDS011;3488;42.616;23.350;2023-05-18T12:34:14;5.03;;;3.30;;
6898;SDS011;3488;42.616;23.350;2023-05-18T12:36:50;3.20;;;3.00;;
6898;SDS011;3488;42.616;23.350;2023-05-18T12:39:17;3.55;;;3.13;;
6898;SDS011;3488;42.616;23.350;2023-05-18T12:41:45;4.60;;;3.35;;
6898;SDS011;3488;42.616;23.350;2023-05-18T12:44:14;4.47;;;3.08;;
6898;SDS011;3488;42.616;23.350;2023-05-18T12:46:41;3.28;;;3.08;;
6898;SDS011;3488;42.616;23.350;2023-05-18T12:49:09;4.18;;;2.78;;
6898;SDS011;3488;42.616;23.350;2023-05-18T12:51:37;2.72;;;2.53;;
6898;SDS011;3488;42.616;23.350;2023-05-18T12:54:05;3.88;;;2.83;;
6898;SDS011;3488;42.616;23.350;2023-05-18T12:56:49;2.90;;;2.70;;
6898;SDS011;3488;42.616;23.350;2023-05-18T12:59:25;2.78;;;2.58;;
6898;SDS011;3488;42.616;23.350;2023-05-18T13:01:53;5.60;;;2.80;;
6898;SDS011;3488;42.616;23.350;2023-05-18T13:04:20;5.50;;;3.75;;
6898;SDS011;3488;42.616;23.350;2023-05-18T13:06:48;2.90;;;2.70;;
6898;SDS011;3488;42.616;23.350;2023-05-18T13:09:15;4.28;;;3.45;;
6898;SDS011;3488;42.616;23.350;2023-05-18T13:11:45;3.60;;;3.38;;
6898;SDS011;3488;42.616;23.350;2023-05-18T13:14:18;3.55;;;3.35;;
6898;SDS011;3488;42.616;23.350;2023-05-18T13:16:50;4.60;;;3.80;;
6898;SDS011;3488;42.616;23.350;2023-05-18T13:19:17;5.40;;;4.40;;
6898;SDS011;3488;42.616;23.350;2023-05-18T13:21:45;5.50;;;4.18;;
6898;SDS011;3488;42.616;23.350;2023-05-18T13:24:13;4.45;;;4.18;;
6898;SDS011;3488;42.616;23.350;2023-05-18T13:26:40;5.20;;;4.78;;
6898;SDS011;3488;42.616;23.350;2023-05-18T13:29:07;4.93;;;4.47;;
6898;SDS011;3488;42.616;23.350;2023-05-18T13:31:34;4.50;;;4.10;;
6898;SDS011;3488;42.616;23.350;2023-05-18T13:34:03;4.80;;;4.15;;
6898;SDS011;3488;42.616;23.350;2023-05-18T13:36:30;5.20;;;4.80;;
6898;SDS011;3488;42.616;23.350;2023-05-18T13:39:00;5.25;;;4.75;;
6898;SDS011;3488;42.616;23.350;2023-05-18T13:41:31;5.10;;;4.80;;
6898;SDS011;3488;42.616;23.350;2023-05-18T13:43:59;7.00;;;5.03;;
6898;SDS011;3488;42.616;23.350;2023-05-18T13:46:26;5.32;;;4.82;;
6898;SDS011;3488;42.616;23.350;2023-05-18T13:48:54;7.78;;;4.85;;
6898;SDS011;3488;42.616;23.350;2023-05-18T13:51:23;9.57;;;4.22;;
6898;SDS011;3488;42.616;23.350;2023-05-18T13:53:50;6.15;;;4.75;;
6898;SDS011;3488;42.616;23.350;2023-05-18T13:56:17;7.28;;;5.13;;
6898;SDS011;3488;42.616;23.350;2023-05-18T13:58:44;6.18;;;5.25;;
6898;SDS011;3488;42.616;23.350;2023-05-18T14:01:11;5.20;;;4.70;;
6898;SDS011;3488;42.616;23.350;2023-05-18T14:03:38;5.00;;;4.50;;
6898;SDS011;3488;42.616;23.350;2023-05-18T14:06:05;4.50;;;4.20;;
6898;SDS011;3488;42.616;23.350;2023-05-18T14:08:34;4.97;;;4.50;;
6898;SDS011;3488;42.616;23.350;2023-05-18T14:11:02;4.80;;;4.15;;
6898;SDS011;3488;42.616;23.350;2023-05-18T14:13:29;4.80;;;4.40;;
6898;SDS011;3488;42.616;23.350;2023-05-18T14:15:56;5.45;;;4.82;;
6898;SDS011;3488;42.616;23.350;2023-05-18T14:18:23;5.95;;;4.13;;
6898;SDS011;3488;42.616;23.350;2023-05-18T14:20:50;4.93;;;4.57;;
6898;SDS011;3488;42.616;23.350;2023-05-18T14:23:17;5.72;;;3.80;;
6898;SDS011;3488;42.616;23.350;2023-05-18T14:25:46;5.43;;;3.85;;
6898;SDS011;3488;42.616;23.350;2023-05-18T14:28:13;4.57;;;4.28;;
6898;SDS011;3488;42.616;23.350;2023-05-18T14:30:41;4.30;;;3.95;;
6898;SDS011;3488;42.616;23.350;2023-05-18T14:33:08;4.65;;;4.22;;
6898;SDS011;3488;42.616;23.350;2023-05-18T14:35:36;4.45;;;4.15;;
6898;SDS011;3488;42.616;23.350;2023-05-18T14:38:04;5.25;;;4.85;;
6898;SDS011;3488;42.616;23.350;2023-05-18T14:40:31;5.45;;;4.72;;
6898;SDS011;3488;42.616;23.350;2023-05-18T14:43:00;6.47;;;5.75;;
6898;SDS011;3488;42.616;23.350;2023-05-18T14:45:27;8.68;;;4.68;;
6898;SDS011;3488;42.616;23.350;2023-05-18T14:47:54;5.30;;;4.85;;
6898;SDS011;3488;42.616;23.350;2023-05-18T14:50:21;5.32;;;4.93;;
6898;SDS011;3488;42.616;23.350;2023-05-18T14:52:48;6.03;;;5.00;;
6898;SDS011;3488;42.616;23.350;2023-05-18T14:55:16;6.00;;;5.50;;
6898;SDS011;3488;42.616;23.350;2023-05-18T14:57:43;5.28;;;4.88;;
6898;SDS011;3488;42.616;23.350;2023-05-18T15:00:13;5.55;;;5.05;;
6898;SDS011;3488;42.616;23.350;2023-05-18T15:02:41;4.72;;;4.32;;
6898;SDS011;3488;42.616;23.350;2023-05-18T15:05:08;4.13;;;3.88;;
6898;SDS011;3488;42.616;23.350;2023-05-18T15:07:35;4.30;;;3.97;;
6898;SDS011;3488;42.616;23.350;2023-05-18T15:10:04;4.07;;;3.78;;
6898;SDS011;3488;42.616;23.350;2023-05-18T15:12:33;4.20;;;3.80;;